sensor_id;sensor_type;location;lat;lon;timestamp;temperature;humidity
9901;DHT22;4989;48.772;9.154;2023-07-16T06:59:53;28.50;72.20
9901;DHT22;4989;48.772;9.154;2023-07-16T07:04:55;22.10;97.30
9901;DHT22;4989;48.772;9.154;2023-07-16T07:09:57;22.00;96.90
9901;DHT22;4989;48.772;9.154;2023-07-16T08:05:32;21.90;97.20
9901;DHT22;4989;48.772;9.154;2023-07-16T08:10:36;24.50;76.70
9901;DHT22;4989;48.772;9.154;2023-07-16T08:15:38;23.40;80.60
9901;DHT22;4989;48.772;9.154;2023-07-16T08:20:40;23.80;85.00
9901;DHT22;4989;48.772;9.154;2023-07-16T08:25:45;24.20;78.50
9901;DHT22;4989;48.772;9.154;2023-07-16T08:30:48;23.80;78.20
9901;DHT22;4989;48.772;9.154;2023-07-16T08:35:51;24.10;73.60
9901;DHT22;4989;48.772;9.154;2023-07-16T08:40:53;24.00;72.10
9901;DHT22;4989;48.772;9.154;2023-07-16T08:45:55;23.30;70.60
9901;DHT22;4989;48.772;9.154;2023-07-16T08:50:59;23.80;71.20
9901;DHT22;4989;48.772;9.154;2023-07-16T08:56:04;24.40;72.40
9901;DHT22;4989;48.772;9.154;2023-07-16T09:01:07;24.20;66.70
9901;DHT22;4989;48.772;9.154;2023-07-16T09:06:10;24.60;65.70
9901;DHT22;4989;48.772;9.154;2023-07-16T09:11:12;25.10;64.40
9901;DHT22;4989;48.772;9.154;2023-07-16T09:16:18;25.10;63.60
9901;DHT22;4989;48.772;9.154;2023-07-16T09:21:21;25.10;65.90
9901;DHT22;4989;48.772;9.154;2023-07-16T09:26:23;25.20;62.50
9901;DHT22;4989;48.772;9.154;2023-07-16T09:31:26;24.60;64.60
9901;DHT22;4989;48.772;9.154;2023-07-16T09:36:28;25.10;64.70
9901;DHT22;4989;48.772;9.154;2023-07-16T09:41:30;25.10;62.30
9901;DHT22;4989;48.772;9.154;2023-07-16T09:46:32;25.50;62.00
9901;DHT22;4989;48.772;9.154;2023-07-16T09:51:36;26.30;59.90
9901;DHT22;4989;48.772;9.154;2023-07-16T09:56:47;26.60;60.50
9901;DHT22;4989;48.772;9.154;2023-07-16T10:01:54;27.10;62.40
9901;DHT22;4989;48.772;9.154;2023-07-16T10:06:58;26.80;60.10
9901;DHT22;4989;48.772;9.154;2023-07-16T10:12:27;26.80;60.00
9901;DHT22;4989;48.772;9.154;2023-07-16T10:17:31;27.50;56.80
9901;DHT22;4989;48.772;9.154;2023-07-16T10:22:42;27.00;56.60
9901;DHT22;4989;48.772;9.154;2023-07-16T10:27:50;27.40;57.60
9901;DHT22;4989;48.772;9.154;2023-07-16T10:32:54;28.10;56.70
9901;DHT22;4989;48.772;9.154;2023-07-16T10:37:56;28.40;59.20
9901;DHT22;4989;48.772;9.154;2023-07-16T10:42:58;28.70;59.50
9901;DHT22;4989;48.772;9.154;2023-07-16T10:48:01;28.80;53.60
9901;DHT22;4989;48.772;9.154;2023-07-16T10:53:03;29.30;58.20
9901;DHT22;4989;48.772;9.154;2023-07-16T10:58:06;29.00;55.80
9901;DHT22;4989;48.772;9.154;2023-07-16T11:03:09;28.40;60.80
9901;DHT22;4989;48.772;9.154;2023-07-16T11:08:24;28.90;56.00
9901;DHT22;4989;48.772;9.154;2023-07-16T11:13:33;28.80;58.80
9901;DHT22;4989;48.772;9.154;2023-07-16T11:18:37;28.10;55.90
9901;DHT22;4989;48.772;9.154;2023-07-16T11:23:39;28.20;59.40
9901;DHT22;4989;48.772;9.154;2023-07-16T11:28:42;28.90;54.50
9901;DHT22;4989;48.772;9.154;2023-07-16T11:33:45;28.50;52.30
9901;DHT22;4989;48.772;9.154;2023-07-16T11:38:48;28.20;55.50
9901;DHT22;4989;48.772;9.154;2023-07-16T11:43:52;28.10;52.90
9901;DHT22;4989;48.772;9.154;2023-07-16T11:48:54;29.20;56.40
9901;DHT22;4989;48.772;9.154;2023-07-16T11:53:57;29.60;51.00
9901;DHT22;4989;48.772;9.154;2023-07-16T11:58:59;31.10;51.40
9901;DHT22;4989;48.772;9.154;2023-07-16T12:04:02;31.20;51.40
9901;DHT22;4989;48.772;9.154;2023-07-16T12:09:04;31.60;47.60
9901;DHT22;4989;48.772;9.154;2023-07-16T12:14:07;31.20;54.10
9901;DHT22;4989;48.772;9.154;2023-07-16T12:19:09;32.00;49.10
9901;DHT22;4989;48.772;9.154;2023-07-16T12:24:12;30.80;48.60
9901;DHT22;4989;48.772;9.154;2023-07-16T12:29:14;31.50;49.80
9901;DHT22;4989;48.772;9.154;2023-07-16T12:34:17;32.50;46.20
9901;DHT22;4989;48.772;9.154;2023-07-16T12:39:20;32.60;47.50
9901;DHT22;4989;48.772;9.154;2023-07-16T12:44:22;33.20;45.60
9901;DHT22;4989;48.772;9.154;2023-07-16T12:49:24;32.40;46.80
9901;DHT22;4989;48.772;9.154;2023-07-16T12:54:27;32.60;46.60
9901;DHT22;4989;48.772;9.154;2023-07-16T12:59:29;32.00;46.80
9901;DHT22;4989;48.772;9.154;2023-07-16T13:04:32;31.60;48.00
9901;DHT22;4989;48.772;9.154;2023-07-16T13:09:34;31.90;48.10
9901;DHT22;4989;48.772;9.154;2023-07-16T13:14:37;32.30;46.80
9901;DHT22;4989;48.772;9.154;2023-07-16T13:19:39;33.10;45.50
9901;DHT22;4989;48.772;9.154;2023-07-16T13:24:42;32.80;46.70
9901;DHT22;4989;48.772;9.154;2023-07-16T13:29:44;31.60;47.70
9901;DHT22;4989;48.772;9.154;2023-07-16T13:34:46;32.60;46.00
9901;DHT22;4989;48.772;9.154;2023-07-16T13:39:49;33.00;45.20
9901;DHT22;4989;48.772;9.154;2023-07-16T13:44:51;33.70;46.20
9901;DHT22;4989;48.772;9.154;2023-07-16T13:49:54;34.30;45.00
9901;DHT22;4989;48.772;9.154;2023-07-16T13:54:56;33.50;45.10
9901;DHT22;4989;48.772;9.154;2023-07-16T13:59:58;33.60;44.90
9901;DHT22;4989;48.772;9.154;2023-07-16T14:05:05;32.70;46.40
9901;DHT22;4989;48.772;9.154;2023-07-16T14:10:08;32.30;46.50
9901;DHT22;4989;48.772;9.154;2023-07-16T14:15:11;32.20;46.90
9901;DHT22;4989;48.772;9.154;2023-07-16T14:20:13;32.10;47.00
9901;DHT22;4989;48.772;9.154;2023-07-16T14:25:15;31.80;47.10
9901;DHT22;4989;48.772;9.154;2023-07-16T14:30:18;31.30;47.50
9901;DHT22;4989;48.772;9.154;2023-07-16T14:35:21;30.60;48.20
9901;DHT22;4989;48.772;9.154;2023-07-16T14:40:37;30.30;48.80
9901;DHT22;4989;48.772;9.154;2023-07-16T14:45:39;30.50;54.30
9901;DHT22;4989;48.772;9.154;2023-07-16T14:50:42;30.50;54.90
9901;DHT22;4989;48.772;9.154;2023-07-16T14:55:51;30.00;55.60
9901;DHT22;4989;48.772;9.154;2023-07-16T15:00:54;29.80;56.00
9901;DHT22;4989;48.772;9.154;2023-07-16T15:05:59;29.70;56.40
9901;DHT22;4989;48.772;9.154;2023-07-16T15:11:01;29.60;56.70
9901;DHT22;4989;48.772;9.154;2023-07-16T15:16:04;29.60;56.70
9901;DHT22;4989;48.772;9.154;2023-07-16T15:21:07;29.60;56.40
9901;DHT22;4989;48.772;9.154;2023-07-16T15:26:09;29.70;56.50
9901;DHT22;4989;48.772;9.154;2023-07-16T15:31:13;29.60;57.40
9901;DHT22;4989;48.772;9.154;2023-07-16T15:36:15;29.70;57.60
9901;DHT22;4989;48.772;9.154;2023-07-16T15:41:19;29.70;57.40
9901;DHT22;4989;48.772;9.154;2023-07-16T15:46:25;29.70;57.40
9901;DHT22;4989;48.772;9.154;2023-07-16T15:51:28;29.60;57.50
9901;DHT22;4989;48.772;9.154;2023-07-16T15:56:30;29.50;57.80
9901;DHT22;4989;48.772;9.154;2023-07-16T16:01:32;29.30;57.50
9901;DHT22;4989;48.772;9.154;2023-07-16T16:06:35;29.20;57.30
9901;DHT22;4989;48.772;9.154;2023-07-16T16:11:40;29.20;57.60
9901;DHT22;4989;48.772;9.154;2023-07-16T16:16:43;29.00;57.10
9901;DHT22;4989;48.772;9.154;2023-07-16T16:22:02;28.90;57.70
9901;DHT22;4989;48.772;9.154;2023-07-16T16:27:05;28.70;57.60
9901;DHT22;4989;48.772;9.154;2023-07-16T16:32:07;28.70;57.60
9901;DHT22;4989;48.772;9.154;2023-07-16T16:37:10;28.50;57.30
9901;DHT22;4989;48.772;9.154;2023-07-16T16:42:12;28.60;57.30
9901;DHT22;4989;48.772;9.154;2023-07-16T16:47:14;28.70;56.90
9901;DHT22;4989;48.772;9.154;2023-07-16T16:52:17;28.60;57.10
9901;DHT22;4989;48.772;9.154;2023-07-16T16:57:20;28.50;56.90
9901;DHT22;4989;48.772;9.154;2023-07-16T17:02:23;28.70;57.20
9901;DHT22;4989;48.772;9.154;2023-07-16T17:07:25;28.50;57.40
9901;DHT22;4989;48.772;9.154;2023-07-16T17:12:28;28.60;57.10
9901;DHT22;4989;48.772;9.154;2023-07-16T17:17:30;28.50;56.90
9901;DHT22;4989;48.772;9.154;2023-07-16T17:22:33;28.50;57.00
9901;DHT22;4989;48.772;9.154;2023-07-16T17:27:36;28.60;57.50
9901;DHT22;4989;48.772;9.154;2023-07-16T17:32:39;28.50;57.40
9901;DHT22;4989;48.772;9.154;2023-07-16T17:37:41;28.50;57.10
9901;DHT22;4989;48.772;9.154;2023-07-16T17:42:45;28.50;57.50
9901;DHT22;4989;48.772;9.154;2023-07-16T17:47:47;28.60;57.10
9901;DHT22;4989;48.772;9.154;2023-07-16T17:52:50;28.60;56.90
9901;DHT22;4989;48.772;9.154;2023-07-16T17:57:52;28.60;57.50
9901;DHT22;4989;48.772;9.154;2023-07-16T18:02:55;28.40;57.00
9901;DHT22;4989;48.772;9.154;2023-07-16T18:07:58;28.50;57.70
9901;DHT22;4989;48.772;9.154;2023-07-16T18:13:01;28.40;57.80
9901;DHT22;4989;48.772;9.154;2023-07-16T18:18:04;28.50;57.70
9901;DHT22;4989;48.772;9.154;2023-07-16T18:23:07;28.30;57.40
9901;DHT22;4989;48.772;9.154;2023-07-16T18:28:09;28.30;58.10
9901;DHT22;4989;48.772;9.154;2023-07-16T18:33:12;28.30;57.90
9901;DHT22;4989;48.772;9.154;2023-07-16T18:38:14;28.50;57.40
9901;DHT22;4989;48.772;9.154;2023-07-16T18:43:17;28.40;57.90
9901;DHT22;4989;48.772;9.154;2023-07-16T18:48:20;28.40;58.10
9901;DHT22;4989;48.772;9.154;2023-07-16T18:53:23;28.30;57.90
9901;DHT22;4989;48.772;9.154;2023-07-16T18:58:28;28.30;55.80
9901;DHT22;4989;48.772;9.154;2023-07-16T19:03:31;28.40;55.80
9901;DHT22;4989;48.772;9.154;2023-07-16T19:08:33;28.40;56.40
9901;DHT22;4989;48.772;9.154;2023-07-16T19:13:36;28.30;58.50
9901;DHT22;4989;48.772;9.154;2023-07-16T19:18:38;28.20;59.30
9901;DHT22;4989;48.772;9.154;2023-07-16T19:23:41;28.20;58.90
9901;DHT22;4989;48.772;9.154;2023-07-16T19:28:43;28.20;57.90
9901;DHT22;4989;48.772;9.154;2023-07-16T19:33:45;28.20;58.60
9901;DHT22;4989;48.772;9.154;2023-07-16T19:38:48;28.10;58.30
9901;DHT22;4989;48.772;9.154;2023-07-16T19:43:51;28.20;57.00
9901;DHT22;4989;48.772;9.154;2023-07-16T19:48:53;28.20;53.80
9901;DHT22;4989;48.772;9.154;2023-07-16T19:53:56;27.80;52.60
9901;DHT22;4989;48.772;9.154;2023-07-16T19:58:58;26.70;54.50
9901;DHT22;4989;48.772;9.154;2023-07-16T20:04:01;27.40;59.20
9901;DHT22;4989;48.772;9.154;2023-07-16T20:09:03;27.70;58.50
9901;DHT22;4989;48.772;9.154;2023-07-16T20:14:06;27.80;58.30
9901;DHT22;4989;48.772;9.154;2023-07-16T20:19:09;27.50;53.20
9901;DHT22;4989;48.772;9.154;2023-07-16T20:24:11;27.50;60.00
9901;DHT22;4989;48.772;9.154;2023-07-16T20:29:14;27.70;59.50
9901;DHT22;4989;48.772;9.154;2023-07-16T20:34:16;27.90;59.70
9901;DHT22;4989;48.772;9.154;2023-07-16T20:39:21;27.80;59.90
9901;DHT22;4989;48.772;9.154;2023-07-16T20:44:23;27.70;54.60
9901;DHT22;4989;48.772;9.154;2023-07-16T20:49:26;26.60;54.90
9901;DHT22;4989;48.772;9.154;2023-07-16T20:54:29;26.40;57.60
9901;DHT22;4989;48.772;9.154;2023-07-16T20:59:31;27.10;58.70
9901;DHT22;4989;48.772;9.154;2023-07-16T21:04:34;27.30;58.80
9901;DHT22;4989;48.772;9.154;2023-07-16T21:09:36;27.50;58.70
9901;DHT22;4989;48.772;9.154;2023-07-16T21:14:38;27.50;56.90
9901;DHT22;4989;48.772;9.154;2023-07-16T21:19:41;27.20;54.90
9901;DHT22;4989;48.772;9.154;2023-07-16T21:24:43;27.30;56.30
9901;DHT22;4989;48.772;9.154;2023-07-16T21:29:46;27.40;59.90
9901;DHT22;4989;48.772;9.154;2023-07-16T21:34:49;27.50;60.00
9901;DHT22;4989;48.772;9.154;2023-07-16T21:39:52;27.50;59.50
9901;DHT22;4989;48.772;9.154;2023-07-16T21:44:54;27.60;60.20
9901;DHT22;4989;48.772;9.154;2023-07-16T21:49:57;27.50;55.90
9901;DHT22;4989;48.772;9.154;2023-07-16T21:54:59;27.50;60.30
9901;DHT22;4989;48.772;9.154;2023-07-16T22:00:03;27.50;59.40
9901;DHT22;4989;48.772;9.154;2023-07-16T22:05:12;27.50;58.70
9901;DHT22;4989;48.772;9.154;2023-07-16T22:10:15;27.40;60.20
9901;DHT22;4989;48.772;9.154;2023-07-16T22:15:18;26.90;57.00
9901;DHT22;4989;48.772;9.154;2023-07-16T22:20:21;26.90;56.80
9901;DHT22;4989;48.772;9.154;2023-07-16T22:25:27;27.10;60.80
9901;DHT22;4989;48.772;9.154;2023-07-16T22:30:30;27.10;61.00
9901;DHT22;4989;48.772;9.154;2023-07-16T22:35:32;27.00;60.30
9901;DHT22;4989;48.772;9.154;2023-07-16T22:40:34;26.90;59.60
9901;DHT22;4989;48.772;9.154;2023-07-16T22:45:37;26.90;58.70
9901;DHT22;4989;48.772;9.154;2023-07-16T22:50:43;26.80;62.00
9901;DHT22;4989;48.772;9.154;2023-07-16T22:55:46;26.80;59.40
9901;DHT22;4989;48.772;9.154;2023-07-16T23:00:50;26.70;61.80
9901;DHT22;4989;48.772;9.154;2023-07-16T23:05:53;26.70;59.20
9901;DHT22;4989;48.772;9.154;2023-07-16T23:10:55;26.40;62.00
9901;DHT22;4989;48.772;9.154;2023-07-16T23:15:58;26.50;60.80
9901;DHT22;4989;48.772;9.154;2023-07-16T23:21:00;26.50;60.60
9901;DHT22;4989;48.772;9.154;2023-07-16T23:26:03;26.60;63.40
9901;DHT22;4989;48.772;9.154;2023-07-16T23:31:08;26.40;59.60
9901;DHT22;4989;48.772;9.154;2023-07-16T23:36:11;26.50;62.90
